createdAt,value
2023-04-19T00:00:40.028Z,83.94
2023-04-19T00:03:08.541Z,84.20
2023-04-19T00:05:38.331Z,84.41
2023-04-19T00:08:07.126Z,84.54
2023-04-19T00:10:36.029Z,84.34
2023-04-19T00:13:04.158Z,84.56
2023-04-19T00:15:35.081Z,84.66
2023-04-19T00:18:03.936Z,84.80
2023-04-19T00:20:32.135Z,85.00
2023-04-19T00:23:00.180Z,84.58
2023-04-19T00:25:28.492Z,84.71
2023-04-19T00:27:56.409Z,84.82
2023-04-19T00:30:24.392Z,84.65
2023-04-19T00:32:54.731Z,84.69
2023-04-19T00:35:25.945Z,84.58
2023-04-19T00:37:54.080Z,84.77
2023-04-19T00:40:22.122Z,84.94
2023-04-19T00:42:50.111Z,84.90
2023-04-19T00:45:18.591Z,84.94
2023-04-19T00:47:46.578Z,85.25
2023-04-19T00:50:16.243Z,85.64
2023-04-19T00:52:45.064Z,84.98
2023-04-19T00:55:13.876Z,85.28
2023-04-19T00:57:41.972Z,85.43
2023-04-19T01:00:11.764Z,85.63
2023-04-19T01:02:39.837Z,85.75
2023-04-19T01:05:08.615Z,85.90
2023-04-19T01:07:38.210Z,85.64
2023-04-19T01:10:07.280Z,86.29
2023-04-19T01:12:35.571Z,86.13
2023-04-19T01:15:05.495Z,86.21
2023-04-19T01:17:34.098Z,86.09
2023-04-19T01:20:02.504Z,86.29
2023-04-19T01:22:33.157Z,86.40
2023-04-19T01:25:01.241Z,86.30
2023-04-19T01:27:29.288Z,86.53
2023-04-19T01:29:58.791Z,86.52
2023-04-19T08:07:14.935Z,79.77
2023-04-19T08:09:43.063Z,80.14
2023-04-19T08:12:14.845Z,79.58
2023-04-19T08:15:00.646Z,78.83
2023-04-19T08:17:41.424Z,78.60
2023-04-19T08:20:12.110Z,78.51
2023-04-19T08:22:41.846Z,77.89
2023-04-19T08:25:11.018Z,78.34
2023-04-19T08:27:38.957Z,77.10
2023-04-19T08:30:09.289Z,77.22
2023-04-19T08:32:37.379Z,76.93
2023-04-19T08:35:06.285Z,77.16
2023-04-19T08:37:34.273Z,77.13
2023-04-19T08:40:03.878Z,76.64
2023-04-19T08:42:36.864Z,75.84
2023-04-19T08:47:51.995Z,75.22
2023-04-19T08:50:33.535Z,75.42
2023-04-19T08:55:36.813Z,72.59
2023-04-19T08:58:09.634Z,73.35
2023-04-19T09:00:41.226Z,72.76
2023-04-19T09:03:10.049Z,73.10
2023-04-19T09:05:38.494Z,72.81
2023-04-19T09:08:22.907Z,71.02
2023-04-19T09:10:56.081Z,71.08
2023-04-19T09:13:24.726Z,70.08
2023-04-19T09:15:53.722Z,69.69
2023-04-19T09:18:21.757Z,68.20
2023-04-19T09:20:50.156Z,68.55
2023-04-19T09:23:19.940Z,68.09
2023-04-19T09:26:19.047Z,67.43
2023-04-19T09:28:57.176Z,67.76
2023-04-19T09:31:43.266Z,67.72
2023-04-19T09:34:15.307Z,66.49
2023-04-19T09:36:43.589Z,66.52
2023-04-19T09:39:12.158Z,65.88
2023-04-19T09:41:53.423Z,65.06
2023-04-19T09:44:53.077Z,66.64
2023-04-19T09:47:24.044Z,65.97
2023-04-19T09:50:18.798Z,67.06
2023-04-19T09:52:49.865Z,65.74
2023-04-19T09:57:53.165Z,65.08
2023-04-19T10:00:22.720Z,65.46
2023-04-19T10:02:55.798Z,67.49
2023-04-19T10:05:26.574Z,67.72
2023-04-19T10:07:59.522Z,68.85
2023-04-19T10:10:41.238Z,68.06
2023-04-19T10:15:52.506Z,67.34
2023-04-19T10:18:24.271Z,67.94
2023-04-19T10:20:56.466Z,67.73
2023-04-19T10:23:24.644Z,67.65
2023-04-19T10:25:57.497Z,67.27
2023-04-19T10:28:29.739Z,68.15
2023-04-19T10:31:01.623Z,66.86
2023-04-19T10:33:31.669Z,66.91
2023-04-19T10:36:00.713Z,67.65
2023-04-19T10:38:39.903Z,67.27
2023-04-19T10:41:17.065Z,66.99
2023-04-19T10:43:48.469Z,66.46
2023-04-19T10:46:36.882Z,66.46
2023-04-19T10:49:06.063Z,66.48
2023-04-19T10:51:35.737Z,67.15
2023-04-19T10:54:04.742Z,65.46
2023-04-19T10:57:04.741Z,65.96
2023-04-19T10:59:35.066Z,65.48
2023-04-19T11:02:05.338Z,65.21
2023-04-19T11:05:11.473Z,65.25
2023-04-19T11:07:40.903Z,63.83
2023-04-19T11:10:10.430Z,64.90
2023-04-19T11:12:38.901Z,65.03
2023-04-19T11:15:11.937Z,65.89
2023-04-19T11:17:39.944Z,66.46
2023-04-19T11:20:10.869Z,66.43
2023-04-19T11:22:41.079Z,66.38
2023-04-19T11:25:11.058Z,67.23
2023-04-19T11:27:39.739Z,66.78
2023-04-19T11:30:11.631Z,68.30
2023-04-19T11:32:46.585Z,67.62
2023-04-19T11:35:14.640Z,67.86
2023-04-19T11:37:42.482Z,68.51
2023-04-19T11:40:15.467Z,68.18
2023-04-19T11:42:43.698Z,68.23
2023-04-19T11:45:25.953Z,68.44
2023-04-19T11:47:57.512Z,69.07
2023-04-19T11:50:33.620Z,69.09
2023-04-19T11:53:10.288Z,69.34
2023-04-19T11:55:38.207Z,69.56
2023-04-19T11:58:09.763Z,70.58
2023-04-19T12:00:39.272Z,70.91
2023-04-19T12:03:07.479Z,70.89
2023-04-19T12:05:35.831Z,71.39
2023-04-19T12:08:06.049Z,72.42
2023-04-19T12:10:34.260Z,72.98
2023-04-19T12:13:02.865Z,73.56
2023-04-19T12:15:44.986Z,74.20
2023-04-19T12:18:12.974Z,75.08
2023-04-19T12:20:45.877Z,75.35
2023-04-19T12:23:15.759Z,75.86
2023-04-19T12:25:44.844Z,76.49
2023-04-19T12:28:13.590Z,77.12
2023-04-19T12:30:42.808Z,77.88
2023-04-19T12:33:12.160Z,78.13
2023-04-19T12:35:41.089Z,79.11
2023-04-19T12:38:09.578Z,79.44
2023-04-19T12:40:37.524Z,81.52
2023-04-19T12:43:07.825Z,83.40
2023-04-19T12:45:35.846Z,83.92
2023-04-19T12:48:03.879Z,85.96
2023-04-19T12:50:33.172Z,87.33
2023-04-19T12:53:01.120Z,87.39
2023-04-19T12:55:28.976Z,87.16
2023-04-19T12:57:57.355Z,89.09
2023-04-19T13:00:25.960Z,89.06
2023-04-19T13:02:54.084Z,89.67
2023-04-19T13:05:22.151Z,89.81
2023-04-19T13:07:51.925Z,90.07
2023-04-19T13:10:21.120Z,91.80
2023-04-19T13:12:49.149Z,89.62
2023-04-19T13:15:17.293Z,90.13
2023-04-19T13:17:45.638Z,91.63
2023-04-19T13:20:14.118Z,90.20
2023-04-19T13:22:42.136Z,92.36
2023-04-19T13:25:11.925Z,92.58
2023-04-19T13:27:39.889Z,91.89
2023-04-19T13:30:09.424Z,91.48
2023-04-19T13:32:37.388Z,92.03
2023-04-19T13:35:05.918Z,92.66
2023-04-19T13:37:33.878Z,91.53
2023-04-19T13:40:17.356Z,91.33
2023-04-19T13:42:48.229Z,91.75
2023-04-19T13:45:16.174Z,93.08
2023-04-19T13:47:44.112Z,91.27
2023-04-19T13:50:13.012Z,92.90
2023-04-19T13:52:41.067Z,92.17
2023-04-19T13:55:09.936Z,92.32
2023-04-19T13:57:37.884Z,92.32
2023-04-19T14:00:09.012Z,91.40
2023-04-19T14:02:37.100Z,92.69
2023-04-19T14:05:05.621Z,91.77
2023-04-19T14:07:33.888Z,91.00
2023-04-19T14:10:01.833Z,91.05
2023-04-19T14:12:30.020Z,91.47
2023-04-19T14:14:57.824Z,92.36
2023-04-19T14:17:27.393Z,91.55
2023-04-19T14:19:57.042Z,91.70
2023-04-19T14:22:24.964Z,91.79
2023-04-19T14:24:52.902Z,91.44
2023-04-19T14:27:20.821Z,90.86
2023-04-19T14:29:48.690Z,92.29
2023-04-19T14:32:26.065Z,91.23
2023-04-19T14:34:56.615Z,90.57
2023-04-19T14:37:25.187Z,90.83
2023-04-19T14:39:53.429Z,91.09
2023-04-19T14:42:23.001Z,91.22
2023-04-19T14:44:52.368Z,89.98
2023-04-19T14:47:20.313Z,90.12
2023-04-19T14:49:48.331Z,89.58
2023-04-19T14:52:18.003Z,90.06
2023-04-19T14:54:46.123Z,89.27
2023-04-19T14:57:14.249Z,89.30
2023-04-19T14:59:42.240Z,88.73
2023-04-19T15:02:13.239Z,87.42
2023-04-19T15:04:42.289Z,89.15
2023-04-19T15:07:11.431Z,89.98
2023-04-19T15:09:41.535Z,88.32
2023-04-19T15:12:09.572Z,88.53
2023-04-19T15:14:37.367Z,90.13
2023-04-19T15:17:05.208Z,88.30
2023-04-19T15:19:33.249Z,87.93
2023-04-19T15:22:01.080Z,88.39
2023-04-19T15:24:29.106Z,89.22
2023-04-19T15:26:58.766Z,87.36
2023-04-19T15:29:26.634Z,89.02
2023-04-19T15:31:54.586Z,86.71
2023-04-19T15:34:22.553Z,86.40
2023-04-19T15:36:50.890Z,86.53
2023-04-19T15:39:18.898Z,86.57
2023-04-19T15:41:46.682Z,87.00
2023-04-19T15:44:15.892Z,86.49
2023-04-19T15:46:43.793Z,84.35
2023-04-19T15:49:11.716Z,84.98
2023-04-19T15:51:39.586Z,85.69
2023-04-19T15:54:07.543Z,85.39
2023-04-19T15:56:35.420Z,83.85
2023-04-19T15:59:03.535Z,83.78
2023-04-19T16:01:33.720Z,84.13
2023-04-19T16:04:03.233Z,82.98
2023-04-19T16:06:31.900Z,82.27
2023-04-19T16:08:59.897Z,83.39
2023-04-19T16:11:27.824Z,82.98
2023-04-19T16:13:55.731Z,82.28
2023-04-19T16:16:26.480Z,84.19
2023-04-19T16:18:55.982Z,82.95
2023-04-19T16:21:23.884Z,82.72
2023-04-19T16:23:51.691Z,82.79
2023-04-19T16:26:19.516Z,81.79
2023-04-19T16:28:48.093Z,82.21
2023-04-19T16:31:16.039Z,82.99
2023-04-19T16:33:43.943Z,83.46
2023-04-19T16:36:13.152Z,81.81
2023-04-19T16:38:41.435Z,81.42
2023-04-19T16:41:09.488Z,82.04
2023-04-19T16:43:37.427Z,83.15
2023-04-19T16:48:35.212Z,84.02
2023-04-19T16:51:03.060Z,82.92
2023-04-19T16:53:33.438Z,83.63
2023-04-19T16:56:03.535Z,83.75
2023-04-19T16:58:31.757Z,82.32
2023-04-19T17:00:59.697Z,83.11
2023-04-19T17:03:29.445Z,83.30
2023-04-19T17:05:57.574Z,82.36
2023-04-19T17:08:26.427Z,82.80
2023-04-19T17:10:55.845Z,83.98
2023-04-19T17:13:23.808Z,84.04
2023-04-19T17:15:51.744Z,85.15
2023-04-19T17:18:19.702Z,85.41
2023-04-19T17:20:47.564Z,84.66
2023-04-19T17:23:15.503Z,86.78
2023-04-19T17:25:43.617Z,86.43
2023-04-19T17:28:12.845Z,85.01
2023-04-19T17:30:40.720Z,84.85
2023-04-19T17:33:08.651Z,84.31
2023-04-19T17:35:36.580Z,84.35
2023-04-19T17:38:04.504Z,83.84
2023-04-19T17:40:32.371Z,83.88
2023-04-19T17:43:00.182Z,84.93
2023-04-19T17:45:29.384Z,85.74
2023-04-19T17:47:57.287Z,84.66
2023-04-19T17:50:26.597Z,84.76
2023-04-19T17:52:55.527Z,85.37
2023-04-19T17:55:23.411Z,85.69
2023-04-19T17:57:51.326Z,85.65
2023-04-19T18:00:19.576Z,86.81
2023-04-19T18:02:50.667Z,86.46
2023-04-19T18:05:18.631Z,86.48
2023-04-19T18:07:47.145Z,87.04
2023-04-19T18:10:15.080Z,87.47
2023-04-19T18:12:42.961Z,87.42
2023-04-19T18:15:11.533Z,87.39
2023-04-19T18:17:39.319Z,87.02
2023-04-19T18:20:10.783Z,87.28
2023-04-19T18:22:40.583Z,73.87
2023-04-19T18:25:09.228Z,68.03
2023-04-19T18:27:37.076Z,67.34
2023-04-19T18:30:05.669Z,65.23
2023-04-19T18:32:33.656Z,61.46
2023-04-19T18:35:03.930Z,62.66
2023-04-19T18:37:33.267Z,63.00
2023-04-19T18:40:01.234Z,61.66
2023-04-19T18:42:29.140Z,62.40
2023-04-19T18:44:56.943Z,61.52
2023-04-19T18:47:27.137Z,61.14
2023-04-19T18:52:25.908Z,57.54
2023-04-19T18:54:58.387Z,56.98
2023-04-19T18:57:27.419Z,57.30
2023-04-19T18:59:56.815Z,56.37
2023-04-19T19:02:25.117Z,57.54
2023-04-19T19:04:58.361Z,56.30
2023-04-19T19:10:06.318Z,56.31
2023-04-19T19:12:44.707Z,56.17
2023-04-19T19:15:12.723Z,55.85
2023-04-19T19:17:40.965Z,53.48
2023-04-19T19:20:10.645Z,55.61
2023-04-19T19:22:38.705Z,53.97
2023-04-19T19:25:08.878Z,53.93
2023-04-19T19:27:37.688Z,55.44
2023-04-19T19:30:07.559Z,55.25
2023-04-19T19:32:36.267Z,55.25
2023-04-19T19:35:08.071Z,56.41
2023-04-19T19:37:36.836Z,55.09
2023-04-19T19:40:06.649Z,55.88
2023-04-19T19:42:36.175Z,54.96
2023-04-19T19:45:04.450Z,56.09
2023-04-19T19:47:35.315Z,56.17
2023-04-19T19:50:46.629Z,55.71
2023-04-19T19:52:52.836Z,55.65
2023-04-19T19:55:20.722Z,56.38
2023-04-19T19:58:23.697Z,55.56
2023-04-19T20:00:45.931Z,56.40
2023-04-19T20:03:24.643Z,57.21
2023-04-19T20:06:05.495Z,57.82
2023-04-19T20:08:47.425Z,56.28
2023-04-19T20:11:15.367Z,57.09
2023-04-19T20:13:44.606Z,56.61
2023-04-19T20:16:12.560Z,57.82
2023-04-19T20:18:42.463Z,58.17
2023-04-19T20:21:11.168Z,57.88
2023-04-19T20:23:39.836Z,57.79
2023-04-19T20:26:07.869Z,59.39
2023-04-19T20:28:36.447Z,58.51
2023-04-19T20:31:05.640Z,60.01
2023-04-19T20:33:33.450Z,60.19
2023-04-19T20:36:01.920Z,58.25
2023-04-19T20:38:29.821Z,58.60
2023-04-19T20:40:57.770Z,59.40
2023-04-19T20:43:25.961Z,58.91
2023-04-19T20:45:53.863Z,59.26
2023-04-19T20:48:23.039Z,59.69
2023-04-19T20:50:50.867Z,60.91
2023-04-19T20:53:18.765Z,58.68
2023-04-19T20:55:46.719Z,60.40
2023-04-19T20:58:14.554Z,59.27
2023-04-19T21:00:42.374Z,60.69
2023-04-19T21:03:10.645Z,60.32
2023-04-19T21:05:39.951Z,60.66
2023-04-19T21:08:07.852Z,60.89
2023-04-19T21:10:35.645Z,60.65
2023-04-19T21:13:03.721Z,60.25
2023-04-19T21:15:31.680Z,60.17
2023-04-19T21:17:59.545Z,60.47
2023-04-19T21:20:27.376Z,61.77
2023-04-19T21:22:56.577Z,60.19
2023-04-19T21:25:24.465Z,60.12
2023-04-19T21:27:52.345Z,60.63
2023-04-19T21:30:22.584Z,61.27
2023-04-19T21:32:50.983Z,61.35
2023-04-19T21:35:19.129Z,61.96
2023-04-19T21:37:46.982Z,61.59
2023-04-19T21:40:16.279Z,61.36
2023-04-19T21:42:44.134Z,62.17
2023-04-19T21:45:12.648Z,62.24
2023-04-19T21:47:40.545Z,61.61
2023-04-19T21:50:10.107Z,62.62
2023-04-19T21:52:37.971Z,62.75
2023-04-19T21:55:06.951Z,62.35
2023-04-19T21:57:38.212Z,62.44
2023-04-19T22:00:10.152Z,63.72
2023-04-19T22:02:38.064Z,63.42
2023-04-19T22:05:07.258Z,62.57
2023-04-19T22:07:38.621Z,62.43
2023-04-19T22:10:07.880Z,63.70
2023-04-19T22:12:45.112Z,63.93
2023-04-19T22:15:19.406Z,64.03
2023-04-19T22:17:47.397Z,64.10
2023-04-19T22:20:15.778Z,63.34
2023-04-19T22:22:43.702Z,63.30
2023-04-19T22:25:11.745Z,63.71
2023-04-19T22:27:40.940Z,64.38
2023-04-19T22:30:09.526Z,64.99
2023-04-19T22:32:37.416Z,64.69
2023-04-19T22:35:05.874Z,64.44
2023-04-19T22:37:33.728Z,65.75
2023-04-19T22:40:01.715Z,67.39
2023-04-19T22:42:29.549Z,66.35
2023-04-19T22:44:58.993Z,66.36
2023-04-19T22:47:26.970Z,66.50
2023-04-19T22:49:55.155Z,66.03
2023-04-19T22:52:23.003Z,66.74
2023-04-19T22:54:50.939Z,66.11
2023-04-19T22:57:18.760Z,66.97
2023-04-19T22:59:46.578Z,65.79
2023-04-19T23:02:15.870Z,66.60
2023-04-19T23:04:44.426Z,67.74
2023-04-19T23:07:12.341Z,66.73
2023-04-19T23:09:41.704Z,67.45
2023-04-19T23:12:09.532Z,67.13
2023-04-19T23:14:38.717Z,67.45
2023-04-19T23:17:07.278Z,68.38
2023-04-19T23:19:36.772Z,68.27
2023-04-19T23:22:04.688Z,69.05
2023-04-19T23:24:32.562Z,68.74
2023-04-19T23:27:01.766Z,68.40
2023-04-19T23:29:29.724Z,68.90
2023-04-19T23:31:57.708Z,68.66
2023-04-19T23:34:25.697Z,68.48
2023-04-19T23:36:54.911Z,68.84
2023-04-19T23:39:22.834Z,69.18
2023-04-19T23:41:50.682Z,70.20
2023-04-19T23:44:19.349Z,70.93
2023-04-19T23:46:47.357Z,70.06
2023-04-19T23:49:16.023Z,71.28
2023-04-19T23:51:44.158Z,70.64
2023-04-19T23:54:13.336Z,71.70
2023-04-19T23:56:41.569Z,72.16
2023-04-19T23:59:09.386Z,73.21
